Time;durP1;ratioP1;P1;durP2;ratioP2;P2;SDS_P1;SDS_P2;PMS_P1;PMS_P2;Temp;Humidity;BMP_temperature;BMP_pressure;BME280_temperature;BME280_humidity;BME280_pressure;Samples;Min_cycle;Max_cycle;Signal;HPM_P1;HPM_P2
2021/11/17 02:28:24;;;;;;;;;91.00;84.50;9.10;63.80;;;;;;5095081;28;8759;-66
2021/11/17 02:31:26;;;;;;;;;91.25;84.75;9.10;63.80;;;;;;5094830;28;9160;-66
2021/11/17 02:34:20;;;;;;;;;97.00;87.00;9.10;63.40;;;;;;5094734;28;8768;-67
2021/11/17 02:36:45;;;;;;;;;97.75;84.00;9.10;63.60;;;;;;5094918;28;9534;-66
2021/11/17 02:39:11;;;;;;;;;96.25;88.50;9.10;63.50;;;;;;5094558;28;8921;-67
2021/11/17 02:42:28;;;;;;;;;100.00;99.25;9.00;63.50;;;;;;5094814;28;8775;-66
2021/11/17 02:45:23;;;;;;;;;97.50;90.50;8.80;63.80;;;;;;5012302;28;8781;-67
2021/11/17 02:47:51;;;;;;;;;98.00;92.00;8.60;64.40;;;;;;5008675;28;8963;-65
2021/11/17 02:50:42;;;;;;;;;107.50;106.00;8.60;65.50;;;;;;5012442;28;8797;-65
2021/11/17 02:53:29;;;;;;;;;103.75;101.00;8.60;64.20;;;;;;5012548;28;8793;-68
2021/11/17 02:56:09;;;;;;;;;110.75;105.50;8.70;63.80;;;;;;5012412;28;8793;-67
2021/11/17 02:59:00;;;;;;;;;107.75;102.00;8.60;63.80;;;;;;5012389;28;8817;-67
2021/11/17 03:01:41;;;;;;;;;113.50;109.75;8.80;63.30;;;;;;5012447;28;8795;-67
2021/11/17 03:04:12;;;;;;;;;107.50;106.50;8.80;63.20;;;;;;5012388;28;8761;-65
2021/11/17 03:06:56;;;;;;;;;114.50;112.75;8.50;64.30;;;;;;5012381;28;9463;-67
2021/11/17 03:09:55;;;;;;;;;138.75;134.00;8.50;64.30;;;;;;5012270;28;8789;-67
2021/11/17 03:12:39;;;;;;;;;146.50;134.75;8.40;64.50;;;;;;5016156;28;8805;-67
2021/11/17 03:15:37;;;;;;;;;172.50;157.75;8.60;63.70;;;;;;5037646;28;8759;-67
2021/11/17 03:18:12;;;;;;;;;171.75;157.50;8.70;63.50;;;;;;5098596;28;8831;-66
2021/11/17 03:21:12;;;;;;;;;158.25;150.50;8.50;63.70;;;;;;5098338;28;8787;-65
2021/11/17 03:23:49;;;;;;;;;146.50;139.25;8.40;64.20;;;;;;5098235;28;8768;-67
2021/11/17 03:26:33;;;;;;;;;140.50;135.00;8.40;64.50;;;;;;5098379;28;8782;-66
2021/11/17 03:29:02;;;;;;;;;118.25;114.50;8.60;63.70;;;;;;5098098;28;8775;-67
2021/11/17 03:32:02;;;;;;;;;132.50;127.50;8.50;63.80;;;;;;5098326;28;9425;-66
2021/11/17 03:34:40;;;;;;;;;149.75;143.25;8.30;64.60;;;;;;5098278;28;8744;-67
2021/11/17 03:37:43;;;;;;;;;139.00;131.25;8.20;65.70;;;;;;5098074;28;8767;-67
2021/11/17 03:40:45;;;;;;;;;143.25;138.25;8.30;64.20;;;;;;5098218;28;8776;-67
2021/11/17 03:43:40;;;;;;;;;154.50;146.00;8.40;63.90;;;;;;5097963;28;8771;-67
2021/11/17 03:46:28;;;;;;;;;147.25;141.75;8.30;63.80;;;;;;5063246;28;8780;-66
2021/11/17 03:49:09;;;;;;;;;139.75;137.00;8.40;63.50;;;;;;5086898;28;8800;-66
2021/11/17 03:51:41;;;;;;;;;127.25;121.50;8.40;63.20;;;;;;5097775;28;8794;-68
2021/11/17 03:54:30;;;;;;;;;155.50;135.00;7.90;64.90;;;;;;5097729;28;8821;-68
2021/11/17 03:57:20;;;;;;;;;144.00;138.75;8.10;64.50;;;;;;5079818;28;8768;-66
2021/11/17 04:00:02;;;;;;;;;126.25;121.25;8.20;64.20;;;;;;5097561;28;8815;-67
2021/11/17 04:02:49;;;;;;;;;149.25;137.50;8.40;63.60;;;;;;5097637;28;8744;-66
2021/11/17 04:05:30;;;;;;;;;127.75;121.25;8.30;63.70;;;;;;5097500;28;8760;-67
2021/11/17 04:08:14;;;;;;;;;134.25;128.25;8.10;64.10;;;;;;5097797;28;9386;-66
2021/11/17 04:11:00;;;;;;;;;114.00;111.00;8.20;64.10;;;;;;5097343;28;8779;-67
2021/11/17 04:13:41;;;;;;;;;97.50;92.75;8.20;64.20;;;;;;5097413;28;8760;-66
2021/11/17 04:16:31;;;;;;;;;109.50;103.75;8.40;63.90;;;;;;5097356;28;8748;-68
2021/11/17 04:19:27;;;;;;;;;102.75;100.50;8.20;63.70;;;;;;5097138;28;8895;-67
2021/11/17 04:22:02;;;;;;;;;120.25;108.50;8.00;64.40;;;;;;5096796;28;8756;-67
2021/11/17 04:24:48;;;;;;;;;100.00;91.00;8.00;64.60;;;;;;5097145;28;8763;-67
2021/11/17 04:27:35;;;;;;;;;105.00;100.50;8.00;64.70;;;;;;5097103;28;8772;-66
2021/11/17 04:30:13;;;;;;;;;108.00;106.25;7.90;64.50;;;;;;5097240;28;8896;-67
2021/11/17 04:32:45;;;;;;;;;109.00;103.00;7.50;65.80;;;;;;5097182;28;8767;-66
2021/11/17 04:35:19;;;;;;;;;101.75;99.25;7.50;66.20;;;;;;5097154;28;9437;-66
2021/11/17 04:38:01;;;;;;;;;101.50;97.75;7.70;65.70;;;;;;5097013;28;8859;-67
2021/11/17 04:40:38;;;;;;;;;113.00;109.50;7.60;65.20;;;;;;5096332;28;8759;-66
2021/11/17 04:43:28;;;;;;;;;110.25;107.50;7.80;65.20;;;;;;5096816;28;8795;-67
2021/11/17 04:46:18;;;;;;;;;107.50;106.00;7.90;64.40;;;;;;5096635;28;8794;-66
2021/11/17 04:48:47;;;;;;;;;118.00;112.50;8.00;63.80;;;;;;5055257;28;8795;-66
2021/11/17 04:51:37;;;;;;;;;120.50;113.00;7.90;64.00;;;;;;5096850;28;9444;-67
2021/11/17 04:54:27;;;;;;;;;114.25;111.00;8.00;64.00;;;;;;5096559;28;8832;-66
2021/11/17 04:56:56;;;;;;;;;113.00;109.25;7.90;63.70;;;;;;5096587;28;8756;-67
2021/11/17 04:59:46;;;;;;;;;116.75;102.75;7.90;63.50;;;;;;5096567;28;8800;-67
2021/11/17 05:02:40;;;;;;;;;103.00;99.75;7.70;64.00;;;;;;5096274;28;8791;-66
2021/11/17 05:05:25;;;;;;;;;99.25;91.75;7.60;64.80;;;;;;5096611;28;8744;-67
2021/11/17 05:07:55;;;;;;;;;100.50;95.50;7.70;63.90;;;;;;5096262;28;8790;-66
2021/11/17 05:10:40;;;;;;;;;110.00;103.00;7.80;64.00;;;;;;5096418;28;8799;-64
2021/11/17 05:13:18;;;;;;;;;102.00;92.75;7.90;63.80;;;;;;5096356;28;8878;-65
2021/11/17 05:15:50;;;;;;;;;87.50;71.25;7.80;63.20;;;;;;5095894;28;8778;-64
2021/11/17 05:18:35;;;;;;;;;91.75;74.25;7.70;63.10;;;;;;5096194;28;8827;-65
2021/11/17 05:21:13;;;;;;;;;94.00;81.50;7.60;63.80;;;;;;5095878;28;8796;-66
2021/11/17 05:23:57;;;;;;;;;94.00;80.25;7.50;63.80;;;;;;5096048;28;8732;-64
2021/11/17 05:26:44;;;;;;;;;88.00;69.75;7.40;64.40;;;;;;5096205;28;8740;-66
2021/11/17 05:29:41;;;;;;;;;90.25;77.00;7.10;65.60;;;;;;5095876;28;8764;-66
2021/11/17 05:32:07;;;;;;;;;94.00;73.75;7.50;64.30;;;;;;5095937;28;8744;-65
2021/11/17 05:34:42;;;;;;;;;95.00;84.50;7.50;64.00;;;;;;5095699;28;8787;-65
2021/11/17 05:37:37;;;;;;;;;96.25;85.00;7.50;63.70;;;;;;5095999;28;9449;-65
2021/11/17 05:40:41;;;;;;;;;96.50;85.25;7.20;65.20;;;;;;5093624;28;8791;-63
2021/11/17 05:43:13;;;;;;;;;101.00;94.50;7.30;65.10;;;;;;5094937;28;8776;-64
2021/11/17 05:45:57;;;;;;;;;113.50;110.25;7.20;66.70;;;;;;5094852;28;8768;-63
2021/11/17 05:48:47;;;;;;;;;102.25;99.25;7.00;67.30;;;;;;5087740;28;8824;-67
2021/11/17 05:51:16;;;;;;;;;141.25;135.75;7.20;67.50;;;;;;5088646;28;9721;-63
2021/11/17 05:54:00;;;;;;;;;114.75;106.00;7.40;67.00;;;;;;5094975;28;8878;-64
2021/11/17 05:56:47;;;;;;;;;138.50;135.25;7.10;68.50;;;;;;5094813;28;8890;-63
2021/11/17 05:59:39;;;;;;;;;134.00;131.50;7.50;67.30;;;;;;5094064;28;8883;-60
2021/11/17 06:02:17;;;;;;;;;149.25;141.00;7.80;65.70;;;;;;5072977;28;8806;-65
2021/11/17 06:04:43;;;;;;;;;142.25;137.25;7.80;65.20;;;;;;5093206;28;8902;-62
2021/11/17 06:07:08;;;;;;;;;156.75;154.25;7.90;64.90;;;;;;5095124;28;8902;-64
2021/11/17 06:09:34;;;;;;;;;141.75;135.00;7.50;66.00;;;;;;5095220;28;8764;-64
2021/11/17 06:12:09;;;;;;;;;176.00;167.75;7.20;67.00;;;;;;5094735;28;8814;-64
2021/11/17 06:14:39;;;;;;;;;182.00;175.50;7.00;68.10;;;;;;5094902;28;8775;-61
2021/11/17 06:17:27;;;;;;;;;154.00;147.50;7.00;68.60;;;;;;5095091;28;8860;-61
2021/11/17 06:19:55;;;;;;;;;181.50;169.00;7.30;67.40;;;;;;5095025;28;8803;-61
2021/11/17 06:22:24;;;;;;;;;152.50;138.75;7.40;66.80;;;;;;5094764;28;8784;-61
2021/11/17 06:24:53;;;;;;;;;195.25;187.50;7.40;66.40;;;;;;5094998;28;8864;-61
2021/11/17 06:27:22;;;;;;;;;208.00;194.75;7.20;67.20;;;;;;5094852;28;8775;-61
2021/11/17 06:29:50;;;;;;;;;210.75;200.00;7.00;67.90;;;;;;5094682;28;8755;-61
2021/11/17 06:32:17;;;;;;;;;205.00;199.25;6.80;69.50;;;;;;5094673;28;8771;-61
2021/11/17 06:34:48;;;;;;;;;213.50;204.50;6.80;68.80;;;;;;5094861;28;9715;-61
2021/11/17 06:37:19;;;;;;;;;220.75;214.25;6.80;69.30;;;;;;5094762;28;8779;-65
2021/11/17 06:39:47;;;;;;;;;234.25;218.25;6.90;69.20;;;;;;5094523;28;8827;-65
2021/11/17 06:42:30;;;;;;;;;229.25;223.75;7.10;68.50;;;;;;5094602;28;8778;-64
2021/11/17 06:44:56;;;;;;;;;230.75;205.00;6.50;70.80;;;;;;5094495;28;8856;-65
2021/11/17 06:47:22;;;;;;;;;246.50;234.25;6.90;70.10;;;;;;5094581;28;8926;-63
2021/11/17 06:49:51;;;;;;;;;265.25;243.50;7.20;68.30;;;;;;5094736;28;9282;-63
2021/11/17 06:52:17;;;;;;;;;234.50;217.75;6.90;69.80;;;;;;5094404;28;8756;-65
2021/11/17 06:54:43;;;;;;;;;252.50;240.25;7.10;69.30;;;;;;5094531;28;8748;-63
2021/11/17 06:57:08;;;;;;;;;267.25;241.00;7.50;67.90;;;;;;5094418;28;8759;-64
2021/11/17 06:59:34;;;;;;;;;244.00;212.50;7.90;66.40;;;;;;5094403;28;8826;-62
2021/11/17 07:02:05;;;;;;;;;272.25;258.00;8.00;65.90;;;;;;5094295;28;8776;-63
2021/11/17 07:04:32;;;;;;;;;241.25;213.50;7.90;66.30;;;;;;5094627;28;8864;-63
2021/11/17 07:06:58;;;;;;;;;252.25;234.00;7.90;66.00;;;;;;5094295;28;8768;-63
2021/11/17 07:09:24;;;;;;;;;283.00;255.50;8.00;65.80;;;;;;5094267;28;8762;-64
2021/11/17 07:11:50;;;;;;;;;335.00;314.50;8.00;65.60;;;;;;5094174;28;8883;-61
2021/11/17 07:14:16;;;;;;;;;290.00;276.75;7.70;66.90;;;;;;5094065;28;8915;-61
2021/11/17 07:16:43;;;;;;;;;326.75;305.00;7.50;67.50;;;;;;5094170;28;8783;-61
2021/11/17 07:19:11;;;;;;;;;334.00;316.75;7.80;66.70;;;;;;5094178;28;8820;-61
2021/11/17 07:21:39;;;;;;;;;327.75;292.50;7.90;65.90;;;;;;5094370;28;8772;-61
2021/11/17 07:24:05;;;;;;;;;294.50;267.75;7.90;66.20;;;;;;5094412;28;8752;-61
2021/11/17 07:26:31;;;;;;;;;302.75;281.75;7.90;65.80;;;;;;5094369;28;9607;-61
2021/11/17 07:28:57;;;;;;;;;297.50;278.25;8.00;65.60;;;;;;5094007;28;8867;-61
2021/11/17 07:31:23;;;;;;;;;291.00;281.25;8.20;65.50;;;;;;5094012;28;8756;-61
2021/11/17 07:33:49;;;;;;;;;280.50;272.00;8.30;65.10;;;;;;5076599;28;8790;-61
2021/11/17 07:36:16;;;;;;;;;293.75;271.75;8.30;64.90;;;;;;5094085;28;8768;-62
2021/11/17 07:38:43;;;;;;;;;282.50;255.00;8.60;64.00;;;;;;5076130;28;8803;-62
2021/11/17 07:41:09;;;;;;;;;282.25;267.75;8.40;64.90;;;;;;5093998;28;8858;-61
2021/11/17 07:43:35;;;;;;;;;268.50;255.75;7.90;66.20;;;;;;5094204;28;8886;-62
2021/11/17 07:46:01;;;;;;;;;290.75;269.00;7.20;69.40;;;;;;5094075;28;8878;-62
2021/11/17 07:48:28;;;;;;;;;285.50;270.25;7.00;70.90;;;;;;5093854;28;8823;-61
2021/11/17 07:50:55;;;;;;;;;268.00;233.75;6.80;72.00;;;;;;5093935;28;8890;-61
2021/11/17 07:53:24;;;;;;;;;245.75;230.00;6.60;73.70;;;;;;5093955;28;8787;-61
2021/11/17 07:55:52;;;;;;;;;230.25;218.75;6.60;73.70;;;;;;5093790;28;8776;-61
2021/11/17 07:58:21;;;;;;;;;214.75;205.25;6.60;74.10;;;;;;5095750;28;8795;-62
2021/11/17 08:00:50;;;;;;;;;186.50;182.75;7.30;72.10;;;;;;5097439;28;8852;-61
2021/11/17 08:03:17;;;;;;;;;202.50;188.50;7.50;71.10;;;;;;5097593;28;8759;-61
2021/11/17 08:05:46;;;;;;;;;198.00;188.25;7.70;70.40;;;;;;5097611;28;9514;-62
2021/11/17 08:08:12;;;;;;;;;201.25;187.75;8.10;69.50;;;;;;5097534;28;8792;-62
2021/11/17 08:10:39;;;;;;;;;198.75;189.50;8.50;68.00;;;;;;5097109;28;8759;-61
2021/11/17 08:13:06;;;;;;;;;182.00;178.75;8.60;67.10;;;;;;5097133;28;8783;-61
2021/11/17 08:15:33;;;;;;;;;133.50;128.50;8.90;66.30;;;;;;5097062;28;8775;-61
2021/11/17 08:17:59;;;;;;;;;151.75;149.25;9.20;65.70;;;;;;5097362;28;8772;-62
2021/11/17 08:20:25;;;;;;;;;156.50;152.00;9.60;64.00;;;;;;5097093;28;8759;-62
2021/11/17 08:22:53;;;;;;;;;161.25;153.75;9.80;63.60;;;;;;5097279;28;8800;-61
2021/11/17 08:25:22;;;;;;;;;180.25;175.00;10.00;63.00;;;;;;5097044;28;8755;-61
2021/11/17 08:27:48;;;;;;;;;181.25;169.75;9.90;63.10;;;;;;5096910;28;8775;-61
2021/11/17 08:30:16;;;;;;;;;186.75;180.25;10.10;63.20;;;;;;5097171;28;9410;-62
2021/11/17 08:32:44;;;;;;;;;180.00;173.75;10.20;62.70;;;;;;5097122;28;8799;-61
2021/11/17 08:35:12;;;;;;;;;183.00;173.00;10.10;62.60;;;;;;5096769;28;8840;-61
2021/11/17 08:37:38;;;;;;;;;184.25;180.25;10.30;62.50;;;;;;5096482;28;8764;-62
2021/11/17 08:40:10;;;;;;;;;164.75;158.75;10.40;62.80;;;;;;5096668;28;8864;-61
2021/11/17 08:42:35;;;;;;;;;170.25;160.50;10.40;62.70;;;;;;5096927;28;8775;-61
2021/11/17 08:45:02;;;;;;;;;175.50;166.50;10.60;62.40;;;;;;5096539;28;8826;-62
2021/11/17 08:47:28;;;;;;;;;154.00;145.00;10.90;61.50;;;;;;5096473;28;9505;-61
2021/11/17 08:49:54;;;;;;;;;141.50;139.50;11.20;61.10;;;;;;5096571;28;8776;-61
2021/11/17 08:52:21;;;;;;;;;143.25;138.50;11.40;60.60;;;;;;5096692;28;8768;-61
2021/11/17 08:54:47;;;;;;;;;91.75;89.50;11.40;60.60;;;;;;5096445;28;9386;-62
2021/11/17 08:57:16;;;;;;;;;97.75;93.25;11.40;60.80;;;;;;5078086;28;8784;-61
2021/11/17 08:59:42;;;;;;;;;105.75;100.50;10.70;63.10;;;;;;5096582;28;8791;-62
2021/11/17 09:02:08;;;;;;;;;104.50;100.50;11.10;63.00;;;;;;5096599;28;8763;-62
2021/11/17 09:04:34;;;;;;;;;98.00;96.00;11.40;61.80;;;;;;5096277;28;8892;-62
2021/11/17 09:07:00;;;;;;;;;99.00;94.50;11.30;61.50;;;;;;5096193;28;8771;-62
2021/11/17 09:09:26;;;;;;;;;95.00;90.00;11.20;62.00;;;;;;5095823;28;8890;-62
2021/11/17 09:11:52;;;;;;;;;95.75;93.75;11.60;61.30;;;;;;5096205;28;8768;-62
2021/11/17 09:14:19;;;;;;;;;91.00;86.25;12.10;59.80;;;;;;5096369;28;8856;-62
2021/11/17 09:16:45;;;;;;;;;86.50;78.75;12.70;58.10;;;;;;5096347;28;8772;-62
2021/11/17 09:19:11;;;;;;;;;84.00;73.75;12.50;57.90;;;;;;5096245;28;8834;-62
2021/11/17 09:21:42;;;;;;;;;80.25;74.50;12.60;57.90;;;;;;5096047;28;8772;-62
2021/11/17 09:24:09;;;;;;;;;81.25;75.25;12.60;57.90;;;;;;5096197;28;8767;-61
2021/11/17 09:26:37;;;;;;;;;80.50;72.75;12.40;58.60;;;;;;5095896;28;8866;-61
2021/11/17 09:29:04;;;;;;;;;85.50;78.25;12.60;59.20;;;;;;5096026;28;8767;-61
2021/11/17 09:31:31;;;;;;;;;68.50;56.75;12.40;59.10;;;;;;5095832;28;8774;-61
2021/11/17 09:33:58;;;;;;;;;83.25;77.00;13.00;56.90;;;;;;5096017;28;9456;-61
2021/11/17 09:36:26;;;;;;;;;76.25;65.50;12.80;56.60;;;;;;5095733;28;8755;-62
2021/11/17 09:38:55;;;;;;;;;79.00;71.50;12.50;57.20;;;;;;5095497;28;8788;-62
2021/11/17 09:41:32;;;;;;;;;82.25;76.75;12.00;59.00;;;;;;5095803;28;8772;-61
2021/11/17 09:44:24;;;;;;;;;79.75;71.00;11.60;61.10;;;;;;5095805;28;8748;-61
2021/11/17 09:46:52;;;;;;;;;82.50;72.00;11.00;63.00;;;;;;5095500;28;8814;-62
2021/11/17 09:49:35;;;;;;;;;84.25;78.75;10.40;65.60;;;;;;5095651;28;8864;-61
2021/11/17 09:52:06;;;;;;;;;86.50;76.75;10.60;65.10;;;;;;5095481;28;8787;-61
2021/11/17 09:55:14;;;;;;;;;82.75;70.25;10.60;65.40;;;;;;5095572;28;8892;-61
2021/11/17 09:57:43;;;;;;;;;83.50;71.25;10.80;64.00;;;;;;5013106;28;8812;-61
2021/11/17 10:00:32;;;;;;;;;95.25;86.50;11.10;63.90;;;;;;5013134;28;8813;-61
2021/11/17 10:03:03;;;;;;;;;97.75;91.25;11.50;62.60;;;;;;5013170;28;8936;-61
2021/11/17 10:06:16;;;;;;;;;99.00;94.75;11.90;61.80;;;;;;5013145;28;8899;-62
2021/11/17 10:08:46;;;;;;;;;97.00;95.00;12.10;60.70;;;;;;5012662;28;8867;-62
2021/11/17 10:11:52;;;;;;;;;89.50;81.25;12.30;60.10;;;;;;5012739;28;8789;-61
2021/11/17 10:14:16;;;;;;;;;101.25;95.50;12.20;60.10;;;;;;5012643;28;9731;-62
2021/11/17 10:16:43;;;;;;;;;95.50;90.75;12.30;60.80;;;;;;5012658;28;8895;-61
2021/11/17 10:19:25;;;;;;;;;88.25;82.00;12.50;59.70;;;;;;5012802;28;8883;-61
2021/11/17 10:22:06;;;;;;;;;92.00;90.00;12.80;58.70;;;;;;5012169;28;8838;-62
2021/11/17 10:24:42;;;;;;;;;108.75;104.25;14.10;56.20;;;;;;5012858;28;8754;-61
2021/11/17 10:27:11;;;;;;;;;95.00;92.50;15.60;52.60;;;;;;5012787;28;8761;-62
2021/11/17 10:29:44;;;;;;;;;106.75;96.50;17.40;47.90;;;;;;5012787;28;8766;-62
2021/11/17 10:32:31;;;;;;;;;84.25;76.75;18.10;45.10;;;;;;5013080;28;9424;-62
2021/11/17 10:35:28;;;;;;;;;113.00;103.00;19.20;43.50;;;;;;5079098;28;8759;-62
2021/11/17 10:38:16;;;;;;;;;103.25;97.75;20.80;40.40;;;;;;5093561;28;8747;-63
2021/11/17 10:40:53;;;;;;;;;94.75;93.50;21.70;38.10;;;;;;5092883;28;8886;-63
2021/11/17 10:43:27;;;;;;;;;100.25;97.00;22.40;35.70;;;;;;5094631;28;8756;-63
2021/11/17 10:46:09;;;;;;;;;94.25;91.25;23.10;34.40;;;;;;5094459;28;8740;-63
2021/11/17 10:48:52;;;;;;;;;94.50;92.00;23.70;33.10;;;;;;5094400;28;8857;-63
2021/11/17 10:51:34;;;;;;;;;99.50;96.50;24.30;31.90;;;;;;5094797;28;8775;-63
2021/11/17 10:54:10;;;;;;;;;99.50;95.25;23.70;31.90;;;;;;5094736;28;8913;-63
2021/11/17 10:56:37;;;;;;;;;94.00;91.75;24.30;32.20;;;;;;5094544;28;8759;-63
2021/11/17 10:59:05;;;;;;;;;106.75;104.75;25.40;30.70;;;;;;5094309;28;8807;-63
2021/11/17 11:01:44;;;;;;;;;98.25;96.50;26.30;29.20;;;;;;5094360;28;8776;-63
2021/11/17 11:04:23;;;;;;;;;104.50;102.50;26.70;28.80;;;;;;5094701;28;9653;-63
2021/11/17 11:07:11;;;;;;;;;101.00;99.50;27.10;28.60;;;;;;5094583;28;8790;-63
2021/11/17 11:09:54;;;;;;;;;93.00;92.00;27.60;27.80;;;;;;5094336;28;8764;-63
2021/11/17 11:12:23;;;;;;;;;98.75;98.25;27.70;27.60;;;;;;5094619;28;8764;-63
2021/11/17 11:15:17;;;;;;;;;86.75;86.00;28.20;27.20;;;;;;5094294;28;8783;-63
2021/11/17 11:18:12;;;;;;;;;82.50;82.00;28.30;26.60;;;;;;5086426;28;8814;-63
2021/11/17 11:20:45;;;;;;;;;78.50;75.75;27.70;26.90;;;;;;5041379;28;8784;-63
2021/11/17 11:23:24;;;;;;;;;79.50;78.00;27.70;27.20;;;;;;5094167;28;8772;-63
2021/11/17 11:25:53;;;;;;;;;78.75;78.25;28.10;26.80;;;;;;5094216;28;8829;-64
2021/11/17 11:28:22;;;;;;;;;73.00;67.00;28.00;26.70;;;;;;5094445;28;8783;-64
2021/11/17 11:31:00;;;;;;;;;81.75;79.00;28.00;26.80;;;;;;5094119;28;8775;-62
2021/11/17 11:33:31;;;;;;;;;73.25;70.25;28.40;26.40;;;;;;5097938;28;8807;-64
2021/11/17 11:36:12;;;;;;;;;75.25;72.25;28.10;26.30;;;;;;5098262;28;9426;-62
2021/11/17 11:39:10;;;;;;;;;71.50;63.50;28.10;26.20;;;;;;5097951;28;8748;-62
2021/11/17 11:42:05;;;;;;;;;79.75;77.25;27.70;26.70;;;;;;5086948;28;8860;-63
2021/11/17 11:44:42;;;;;;;;;76.00;71.25;27.70;26.90;;;;;;5098169;28;8886;-64
2021/11/17 11:47:08;;;;;;;;;80.00;77.25;27.50;26.80;;;;;;5097719;28;9437;-64
2021/11/17 11:49:47;;;;;;;;;80.00;79.75;26.90;26.90;;;;;;5097733;28;8915;-64
2021/11/17 11:52:22;;;;;;;;;82.75;82.50;25.60;28.10;;;;;;5079616;28;8796;-64
2021/11/17 11:54:51;;;;;;;;;81.50;79.00;26.00;28.00;;;;;;5097537;28;8752;-64
2021/11/17 11:57:23;;;;;;;;;80.75;79.75;26.20;28.10;;;;;;5079628;28;8937;-63
2021/11/17 11:59:55;;;;;;;;;78.75;78.75;26.90;27.80;;;;;;5097802;28;8796;-64
2021/11/17 12:02:23;;;;;;;;;78.50;76.50;27.60;27.00;;;;;;5097730;28;9568;-62
2021/11/17 12:05:02;;;;;;;;;74.75;72.75;27.90;26.80;;;;;;5097561;28;8766;-63
2021/11/17 12:07:43;;;;;;;;;81.25;80.25;28.00;26.70;;;;;;5097516;28;8740;-61
2021/11/17 12:10:47;;;;;;;;;84.00;83.25;28.30;26.30;;;;;;5097074;28;8799;-62
2021/11/17 12:13:22;;;;;;;;;85.00;84.00;28.20;26.50;;;;;;5014608;28;8880;-63
2021/11/17 12:16:08;;;;;;;;;83.00;83.00;28.60;26.10;;;;;;5015051;28;8785;-62
2021/11/17 12:18:56;;;;;;;;;81.00;79.75;28.90;26.00;;;;;;5014657;28;8871;-63
2021/11/17 12:21:50;;;;;;;;;76.50;75.00;28.60;25.80;;;;;;5014948;28;8765;-62
2021/11/17 12:24:20;;;;;;;;;73.25;67.00;28.60;25.90;;;;;;5014926;28;8916;-63
2021/11/17 12:26:56;;;;;;;;;69.50;61.75;29.20;25.50;;;;;;5014847;28;8781;-62
2021/11/17 12:29:45;;;;;;;;;73.75;70.25;29.20;25.40;;;;;;5014654;28;8841;-63
2021/11/17 12:32:40;;;;;;;;;69.75;63.75;28.60;25.10;;;;;;5014622;28;9645;-63
2021/11/17 12:35:24;;;;;;;;;75.75;72.50;28.00;25.90;;;;;;5014554;28;8895;-63
2021/11/17 12:37:58;;;;;;;;;81.00;80.50;28.50;25.60;;;;;;5014698;28;8785;-62
2021/11/17 12:40:44;;;;;;;;;78.00;75.25;28.30;25.90;;;;;;5014735;28;8797;-63
2021/11/17 12:43:14;;;;;;;;;75.25;72.00;28.20;26.20;;;;;;5027700;28;8770;-64
2021/11/17 12:45:49;;;;;;;;;75.00;71.75;28.50;25.60;;;;;;5096658;28;8845;-64
2021/11/17 12:48:28;;;;;;;;;73.00;67.50;28.20;25.70;;;;;;5096324;28;8904;-63
2021/11/17 12:51:07;;;;;;;;;78.50;77.25;28.20;25.60;;;;;;5096626;28;8783;-63
2021/11/17 12:53:46;;;;;;;;;76.25;74.25;28.10;26.10;;;;;;5095709;28;8779;-64
2021/11/17 12:56:29;;;;;;;;;73.25;68.75;27.50;26.50;;;;;;5094752;28;8771;-64
2021/11/17 12:58:57;;;;;;;;;74.75;71.75;27.80;26.30;;;;;;5087568;28;8806;-63
2021/11/17 13:01:37;;;;;;;;;71.75;65.50;27.50;26.50;;;;;;5096556;28;8759;-65
2021/11/17 13:04:35;;;;;;;;;76.00;73.50;27.60;26.30;;;;;;5096287;28;8786;-65
2021/11/17 13:07:06;;;;;;;;;77.50;74.25;27.40;26.60;;;;;;5090839;28;8796;-63
2021/11/17 13:09:55;;;;;;;;;74.00;66.50;27.20;27.00;;;;;;5095335;28;8868;-61
2021/11/17 13:12:28;;;;;;;;;72.50;65.25;27.20;26.50;;;;;;5094664;28;8791;-65
2021/11/17 13:15:17;;;;;;;;;69.50;62.25;27.20;26.60;;;;;;5095334;28;8775;-66
2021/11/17 13:17:45;;;;;;;;;72.00;66.50;27.00;26.50;;;;;;5095521;28;8780;-66
2021/11/17 13:20:14;;;;;;;;;71.50;65.00;26.90;26.30;;;;;;5094995;28;8851;-67
2021/11/17 13:22:43;;;;;;;;;71.25;63.25;26.70;26.90;;;;;;5094633;28;9524;-67
2021/11/17 13:25:29;;;;;;;;;79.50;78.50;25.90;27.40;;;;;;5094986;28;8741;-66
2021/11/17 13:28:04;;;;;;;;;78.00;75.25;25.70;27.60;;;;;;5093756;28;8925;-66
2021/11/17 13:30:36;;;;;;;;;72.25;65.50;25.40;27.90;;;;;;5092573;28;9552;-64
2021/11/17 13:33:32;;;;;;;;;64.25;53.00;24.90;28.20;;;;;;5090764;28;8793;-63
2021/11/17 13:36:13;;;;;;;;;76.50;71.50;24.70;28.60;;;;;;5094207;28;8795;-72
2021/11/17 13:38:52;;;;;;;;;77.25;74.00;24.20;28.70;;;;;;5092626;28;8776;-67
2021/11/17 13:41:19;;;;;;;;;78.75;76.75;23.00;29.90;;;;;;5092009;28;8759;-67
2021/11/17 13:43:44;;;;;;;;;80.75;79.75;21.20;33.10;;;;;;5089577;28;8756;-63
2021/11/17 13:46:16;;;;;;;;;81.50;79.00;20.20;35.00;;;;;;5092825;28;8812;-66
2021/11/17 13:48:44;;;;;;;;;83.50;82.75;19.30;37.10;;;;;;5089751;28;8926;-67
2021/11/17 13:51:13;;;;;;;;;87.00;85.50;18.90;38.50;;;;;;5092909;28;8742;-67
2021/11/17 13:53:41;;;;;;;;;84.75;83.00;18.20;40.60;;;;;;5092991;28;8745;-66
2021/11/17 13:56:12;;;;;;;;;91.50;85.50;17.70;41.70;;;;;;5089624;28;8756;-67
2021/11/17 13:58:39;;;;;;;;;88.00;86.50;17.20;42.80;;;;;;5090942;28;8794;-67
2021/11/17 14:01:06;;;;;;;;;89.75;89.00;16.90;43.90;;;;;;5092228;28;8753;-66
2021/11/17 14:03:32;;;;;;;;;88.75;87.25;16.80;44.40;;;;;;5091829;28;8734;-64
2021/11/17 14:06:03;;;;;;;;;87.75;86.50;16.60;45.20;;;;;;5094533;28;8780;-68
2021/11/17 14:08:31;;;;;;;;;95.50;91.75;16.40;45.70;;;;;;5092714;28;8822;-70
2021/11/17 14:10:58;;;;;;;;;100.00;98.75;16.40;45.30;;;;;;5092709;28;8851;-69
2021/11/17 14:13:24;;;;;;;;;86.75;86.75;16.40;45.20;;;;;;5091668;28;8772;-70
2021/11/17 14:15:50;;;;;;;;;90.25;86.50;16.10;45.30;;;;;;5093783;28;8752;-71
2021/11/17 14:18:16;;;;;;;;;86.75;85.00;16.00;46.10;;;;;;5093014;28;8756;-69
2021/11/17 14:20:41;;;;;;;;;95.00;92.00;15.70;46.90;;;;;;5092257;28;8810;-68
2021/11/17 14:23:08;;;;;;;;;95.75;94.75;15.70;47.10;;;;;;5094961;28;8752;-67
2021/11/17 14:25:35;;;;;;;;;85.25;83.50;15.80;46.80;;;;;;5094708;28;8771;-68
2021/11/17 14:28:16;;;;;;;;;90.75;90.50;15.60;47.20;;;;;;5094845;28;8934;-70
2021/11/17 14:30:45;;;;;;;;;94.50;92.00;15.50;47.80;;;;;;5095090;28;8782;-70
2021/11/17 14:33:14;;;;;;;;;100.50;96.25;15.10;49.40;;;;;;5093319;28;8772;-70
2021/11/17 14:35:41;;;;;;;;;97.00;93.75;13.80;54.90;;;;;;5090514;28;8768;-71
2021/11/17 14:38:10;;;;;;;;;108.25;104.50;13.10;57.80;;;;;;5090728;28;8746;-68
2021/11/17 14:40:36;;;;;;;;;113.25;110.50;13.30;57.40;;;;;;5090101;28;8760;-77
2021/11/17 14:43:02;;;;;;;;;117.50;112.00;13.40;57.30;;;;;;5072305;28;8842;-73
2021/11/17 14:45:30;;;;;;;;;120.50;113.25;13.00;59.20;;;;;;5075557;28;8794;-70
2021/11/17 14:47:56;;;;;;;;;116.00;111.75;12.70;60.10;;;;;;5090048;28;8909;-69
2021/11/17 14:50:22;;;;;;;;;114.25;108.00;12.60;60.70;;;;;;5091457;28;9612;-72
2021/11/17 14:52:49;;;;;;;;;107.75;102.00;12.30;61.70;;;;;;5091266;28;8788;-66
2021/11/17 14:55:20;;;;;;;;;109.75;108.75;12.10;62.70;;;;;;5083819;28;8771;-71
2021/11/17 14:57:47;;;;;;;;;120.25;114.50;11.70;63.90;;;;;;5089094;28;8806;-70
2021/11/17 15:00:17;;;;;;;;;120.25;107.75;11.20;66.20;;;;;;5090344;28;8746;-69
2021/11/17 15:02:44;;;;;;;;;119.50;117.50;10.90;67.50;;;;;;5091676;28;8753;-70
2021/11/17 15:05:10;;;;;;;;;123.75;118.75;10.50;68.70;;;;;;5091960;28;8758;-67
2021/11/17 15:07:37;;;;;;;;;122.75;116.50;11.10;67.10;;;;;;5094701;28;8781;-68
2021/11/17 15:10:06;;;;;;;;;125.00;120.50;11.40;65.70;;;;;;5096383;28;8792;-69
2021/11/17 15:12:34;;;;;;;;;132.00;126.00;11.10;66.50;;;;;;5097149;28;8752;-67
2021/11/17 15:15:04;;;;;;;;;127.50;120.75;10.80;67.30;;;;;;5095767;28;8814;-66
2021/11/17 15:17:30;;;;;;;;;119.75;117.00;11.00;67.10;;;;;;5098821;28;8772;-66
2021/11/17 15:19:56;;;;;;;;;123.00;115.00;10.80;67.40;;;;;;5097101;28;8827;-67
2021/11/17 15:22:24;;;;;;;;;119.75;114.25;10.50;68.30;;;;;;5097303;28;8762;-66
2021/11/17 15:24:51;;;;;;;;;124.50;120.25;10.40;68.90;;;;;;5096924;28;8744;-67
2021/11/17 15:27:32;;;;;;;;;124.75;120.50;10.20;69.40;;;;;;5097099;28;8840;-67
2021/11/17 15:29:58;;;;;;;;;131.25;125.50;9.80;71.10;;;;;;5095930;28;8792;-69
2021/11/17 15:32:25;;;;;;;;;122.75;116.50;9.80;71.30;;;;;;5094561;28;8760;-68
2021/11/17 15:34:51;;;;;;;;;118.75;113.25;9.70;71.80;;;;;;5098347;28;8790;-68
2021/11/17 15:37:17;;;;;;;;;135.50;122.75;10.00;70.50;;;;;;5098276;28;9437;-68
2021/11/17 15:39:43;;;;;;;;;127.25;119.75;9.90;71.10;;;;;;5098278;28;8891;-69